createdAt,value
2022-08-22T00:01:20.943Z,99929.30
2022-08-22T00:02:56.170Z,99962.14
2022-08-22T00:03:12.459Z,99945.66
2022-08-22T00:04:18.364Z,99930.69
2022-08-22T00:07:02.089Z,99935.98
2022-08-22T00:09:58.013Z,99932.36
2022-08-22T00:12:50.547Z,99930.41
2022-08-22T00:15:43.191Z,99922.05
2022-08-22T00:18:28.585Z,99923.45
2022-08-22T00:21:24.547Z,99920.95
2022-08-22T00:24:11.498Z,99932.34
2022-08-22T00:27:10.502Z,99932.36
2022-08-22T00:29:48.280Z,99933.47
2022-08-22T00:32:39.453Z,99935.70
2022-08-22T00:35:16.679Z,99934.03
2022-08-22T00:38:07.096Z,99934.88
2022-08-22T00:40:57.438Z,99939.61
2022-08-22T00:43:43.593Z,99940.72
2022-08-22T00:46:51.710Z,99941.00
2022-08-22T00:49:44.563Z,99947.41
2022-08-22T00:52:28.145Z,99951.59
2022-08-22T00:55:34.923Z,99951.04
2022-08-22T00:58:44.915Z,99954.07
2022-08-22T01:01:14.891Z,99950.17
2022-08-22T01:03:55.287Z,99944.88
2022-08-22T01:06:40.189Z,99939.58
2022-08-22T01:09:29.979Z,99941.81
2022-08-22T01:12:14.418Z,99942.64
2022-08-22T01:15:03.360Z,99942.64
2022-08-22T01:18:06.854Z,99947.65
2022-08-22T01:21:20.744Z,99955.17
2022-08-22T01:24:30.889Z,99951.54
2022-08-22T01:27:35.783Z,99950.38
2022-08-22T01:30:42.665Z,99945.36
2022-08-22T01:33:55.841Z,99952.86
2022-08-22T01:37:10.495Z,99949.78
2022-08-22T01:40:24.681Z,99953.40
2022-08-22T01:43:59.655Z,99950.63
2022-08-22T01:46:07.598Z,99956.19
2022-08-22T01:48:42.155Z,99959.81
2022-08-22T01:51:25.030Z,99959.53
2022-08-22T01:54:11.703Z,99961.48
2022-08-22T01:56:44.552Z,99953.68
2022-08-22T01:59:33.801Z,99954.52
2022-08-22T02:02:24.413Z,99953.67
2022-08-22T02:05:22.952Z,99955.62
2022-08-22T02:07:58.451Z,99957.28
2022-08-22T02:10:51.478Z,99960.04
2022-08-22T02:13:46.533Z,99963.62
2022-08-22T02:16:40.472Z,99960.55
2022-08-22T02:19:21.134Z,99964.45
2022-08-22T02:22:01.836Z,99962.46
2022-08-22T02:24:57.570Z,99963.84
2022-08-22T02:27:48.886Z,99969.96
2022-08-22T02:30:41.947Z,99979.16
2022-08-22T02:33:27.595Z,99976.09
2022-08-22T02:36:11.521Z,99969.14
2022-08-22T02:39:01.012Z,99974.42
2022-08-22T02:41:40.877Z,99985.27
2022-08-22T02:44:30.147Z,99978.87
2022-08-22T02:47:32.408Z,99979.69
2022-08-22T02:50:27.491Z,99985.23
2022-08-22T02:53:23.840Z,99982.17
2022-08-22T02:56:15.394Z,99982.67
2022-08-22T02:59:16.553Z,99990.18
2022-08-22T03:01:47.312Z,99991.02
2022-08-22T03:04:43.390Z,99991.84
2022-08-22T03:07:24.351Z,99987.64
2022-08-22T03:10:24.047Z,99995.14
2022-08-22T03:13:34.322Z,99991.79
2022-08-22T03:16:18.047Z,99995.11
2022-08-22T03:19:13.249Z,99990.92
2022-08-22T03:21:57.962Z,99996.77
2022-08-22T03:25:07.098Z,99995.65
2022-08-22T03:27:54.624Z,100001.75
2022-08-22T03:30:34.898Z,99993.69
2022-08-22T03:33:25.943Z,99999.54
2022-08-22T03:36:09.313Z,100008.41
2022-08-22T03:38:49.913Z,99999.22
2022-08-22T03:42:15.946Z,100003.93
2022-08-22T03:45:28.528Z,100011.16
2022-08-22T03:48:44.629Z,100023.96
2022-08-22T03:51:33.352Z,100020.36
2022-08-22T03:54:10.918Z,100020.39
2022-08-22T03:57:08.105Z,100025.12
2022-08-22T04:00:01.179Z,100031.80
2022-08-22T04:03:03.464Z,100033.51
2022-08-22T04:05:44.999Z,100029.36
2022-08-22T04:08:54.587Z,100030.22
2022-08-22T04:11:59.629Z,100032.17
2022-08-22T04:14:49.163Z,100038.30
2022-08-22T04:17:55.033Z,100031.92
2022-08-22T04:20:59.159Z,100036.98
2022-08-22T04:24:11.375Z,100036.72
2022-08-22T04:26:56.914Z,100042.00
2022-08-22T04:29:40.324Z,100038.95
2022-08-22T04:32:20.041Z,100045.08
2022-08-22T04:34:55.004Z,100048.16
2022-08-22T04:37:30.023Z,100046.23
2022-08-22T04:40:17.282Z,100040.69
2022-08-22T04:42:51.251Z,100046.02
2022-08-22T04:45:29.289Z,100042.98
2022-08-22T04:48:18.877Z,100042.71
2022-08-22T04:51:24.432Z,100047.44
2022-08-22T04:54:14.133Z,100048.00
2022-08-22T04:57:19.251Z,100053.04
2022-08-22T04:59:49.360Z,100055.56
2022-08-22T05:02:27.587Z,100055.86
2022-08-22T05:05:05.200Z,100057.55
2022-08-22T05:07:40.090Z,100055.61
2022-08-22T05:10:20.396Z,100056.73
2022-08-22T05:12:57.267Z,100055.37
2022-08-22T05:15:43.369Z,100053.73
2022-08-22T05:18:20.728Z,100059.89
2022-08-22T05:20:50.089Z,100057.67
2022-08-22T05:23:29.786Z,100058.80
2022-08-22T05:26:01.296Z,100063.55
2022-08-22T05:28:51.287Z,100060.48
2022-08-22T05:31:29.359Z,100063.00
2022-08-22T05:34:09.669Z,100064.41
2022-08-22T05:36:57.427Z,100061.11
2022-08-22T05:39:27.997Z,100060.00
2022-08-22T05:42:01.715Z,100061.68
2022-08-22T05:44:34.639Z,100061.13
2022-08-22T05:47:15.251Z,100067.02
2022-08-22T05:50:04.268Z,100058.94
2022-08-22T05:52:48.536Z,100073.16
2022-08-22T05:55:41.674Z,100063.95
2022-08-22T05:58:43.591Z,100065.62
2022-08-22T06:01:24.050Z,100062.55
2022-08-22T06:04:28.854Z,100065.33
2022-08-22T06:07:26.539Z,100064.48
2022-08-22T06:10:21.681Z,100063.11
2022-08-22T06:13:11.474Z,100061.17
2022-08-22T06:15:53.761Z,100059.49
2022-08-22T06:18:25.799Z,100065.62
2022-08-22T06:21:04.064Z,100065.89
2022-08-22T06:23:48.052Z,100063.36
2022-08-22T06:26:20.645Z,100064.73
2022-08-22T06:28:55.315Z,100058.30
2022-08-22T06:31:32.422Z,100054.39
2022-08-22T06:34:15.039Z,100058.28
2022-08-22T06:36:48.674Z,100060.48
2022-08-22T06:39:32.011Z,100057.39
2022-08-22T06:42:14.624Z,100055.69
2022-08-22T06:44:51.734Z,100050.91
2022-08-22T06:47:30.182Z,100059.30
2022-08-22T06:50:07.201Z,100058.96
2022-08-22T06:53:08.203Z,100060.27
2022-08-22T06:55:40.721Z,100052.58
2022-08-22T06:58:17.516Z,100047.34
2022-08-22T07:00:58.823Z,100048.42
2022-08-22T07:03:36.637Z,100041.46
2022-08-22T07:06:08.305Z,100044.23
2022-08-22T07:08:39.286Z,100039.05
2022-08-22T07:11:21.588Z,100040.23
2022-08-22T07:14:06.339Z,100036.66
2022-08-22T07:16:48.530Z,100038.70
2022-08-22T07:19:34.102Z,100036.91
2022-08-22T07:22:25.609Z,100039.69
2022-08-22T07:25:00.172Z,100039.73
2022-08-22T07:27:54.737Z,100036.45
2022-08-22T07:30:27.406Z,100031.56
2022-08-22T07:33:25.138Z,100037.62
2022-08-22T07:35:43.426Z,100037.05
2022-08-22T07:38:28.505Z,100033.16
2022-08-22T07:41:13.021Z,100031.34
2022-08-22T07:44:07.898Z,100031.80
2022-08-22T07:46:42.289Z,100035.92
2022-08-22T07:49:21.603Z,100033.02
2022-08-22T07:52:02.051Z,100030.92
2022-08-22T07:54:57.814Z,100030.78
2022-08-22T07:57:31.929Z,100031.44
2022-08-22T08:00:02.097Z,100027.94
2022-08-22T08:02:34.699Z,100029.67
2022-08-22T08:05:04.918Z,100028.38
2022-08-22T08:07:34.446Z,100020.41
2022-08-22T08:10:12.787Z,100026.81
2022-08-22T08:12:41.470Z,100024.77
2022-08-22T08:15:19.346Z,100027.64
2022-08-22T08:17:58.117Z,100028.30
2022-08-22T08:20:31.275Z,100025.64
2022-08-22T08:23:01.070Z,100025.77
2022-08-22T08:25:31.327Z,100020.56
2022-08-22T08:28:18.825Z,100017.55
2022-08-22T08:30:56.691Z,100018.04
2022-08-22T08:33:27.994Z,100016.45
2022-08-22T08:36:05.275Z,100024.25
2022-08-22T08:38:48.155Z,100021.25
2022-08-22T08:42:01.012Z,100017.27
2022-08-22T08:45:09.751Z,100015.60
2022-08-22T08:47:46.077Z,100017.43
2022-08-22T08:50:37.660Z,100009.76
2022-08-22T08:53:37.930Z,100011.50
2022-08-22T09:00:09.756Z,100015.35
2022-08-22T09:03:08.029Z,100012.87
2022-08-22T09:06:00.261Z,100011.80
2022-08-22T09:08:56.724Z,100013.73
2022-08-22T09:12:02.034Z,100008.25
2022-08-22T09:15:05.319Z,100014.02
2022-08-22T09:18:10.543Z,100001.14
2022-08-22T09:21:00.908Z,100005.41
2022-08-22T09:24:04.804Z,99997.31
2022-08-22T09:27:08.708Z,100003.28
2022-08-22T09:29:51.437Z,99998.11
2022-08-22T09:32:35.727Z,99997.70
2022-08-22T09:35:14.548Z,99990.81
2022-08-22T09:38:18.171Z,99998.29
2022-08-22T09:40:15.240Z,100001.80
2022-08-22T09:41:08.857Z,99996.55
2022-08-22T09:43:48.789Z,99992.64
2022-08-22T09:46:32.129Z,99988.66
2022-08-22T09:49:06.725Z,99988.47
2022-08-22T09:51:57.936Z,99995.93
2022-08-22T09:54:41.177Z,99996.09
2022-08-22T09:57:41.160Z,99993.60
2022-08-22T10:00:22.371Z,100000.66
2022-08-22T10:03:02.586Z,99994.02
2022-08-22T10:05:46.221Z,99994.67
2022-08-22T10:08:35.491Z,99986.95
2022-08-22T10:11:29.107Z,99999.23
2022-08-22T10:14:24.230Z,99998.35
2022-08-22T10:17:23.012Z,99997.53
2022-08-22T10:20:13.919Z,99997.53
2022-08-22T10:23:21.366Z,100002.41
2022-08-22T10:25:54.281Z,100001.16
2022-08-22T10:28:46.768Z,100008.12
2022-08-22T10:31:58.367Z,100008.38
2022-08-22T10:34:16.180Z,100006.39
2022-08-22T10:37:08.332Z,100001.18
2022-08-22T10:39:59.991Z,100013.54
2022-08-22T10:42:45.155Z,100013.11
2022-08-22T10:45:36.239Z,100010.09
2022-08-22T10:48:34.160Z,100003.02
2022-08-22T10:51:08.796Z,100014.21
2022-08-22T10:53:55.979Z,100006.98
2022-08-22T10:57:09.496Z,99999.19
2022-08-22T10:59:48.210Z,100000.84
2022-08-22T11:02:49.375Z,100005.40
2022-08-22T11:05:41.711Z,100006.98
2022-08-22T11:08:43.611Z,100003.19
2022-08-22T11:11:56.989Z,99999.22
2022-08-22T11:14:31.727Z,100013.05
2022-08-22T11:17:32.421Z,99998.78
2022-08-22T11:20:23.386Z,100002.44
2022-08-22T11:23:21.360Z,100002.36
2022-08-22T11:26:15.224Z,100009.00
2022-08-22T11:28:57.747Z,100006.69
2022-08-22T11:31:52.181Z,100000.55
2022-08-22T11:34:56.057Z,100000.55
2022-08-22T11:38:03.081Z,100001.20
2022-08-22T11:40:39.933Z,99996.97
2022-08-22T11:43:36.258Z,99996.32
2022-08-22T11:46:26.167Z,99987.79
2022-08-22T11:49:33.055Z,100000.41
2022-08-22T11:52:25.458Z,99994.44
2022-08-22T11:55:08.657Z,99993.20
2022-08-22T11:57:51.847Z,100001.25
2022-08-22T12:00:41.202Z,99999.44
2022-08-22T12:03:39.137Z,99999.40
2022-08-22T12:06:41.056Z,99995.34
2022-08-22T12:09:35.587Z,99998.92
2022-08-22T12:12:45.523Z,99992.29
2022-08-22T12:15:21.483Z,99995.53
2022-08-22T12:18:34.622Z,99999.69
2022-08-22T12:21:45.089Z,99994.37
2022-08-22T12:24:26.552Z,99991.13
2022-08-22T12:27:00.849Z,99986.15
2022-08-22T12:29:48.564Z,99986.48
2022-08-22T12:33:06.246Z,99993.02
2022-08-22T12:36:05.322Z,99995.84
2022-08-22T12:38:53.562Z,99996.34
2022-08-22T12:41:46.472Z,99995.36
2022-08-22T12:44:40.272Z,100002.41
2022-08-22T12:47:35.531Z,100002.91
2022-08-22T12:50:39.100Z,99997.52
2022-08-22T12:53:26.301Z,99992.96
2022-08-22T12:56:23.796Z,99988.91
2022-08-22T12:59:17.740Z,99991.42
2022-08-22T13:01:49.608Z,99999.56
2022-08-22T13:04:33.053Z,99990.59
2022-08-22T13:07:08.856Z,99990.59
2022-08-22T13:09:43.426Z,99997.31
2022-08-22T13:12:28.011Z,99999.36
2022-08-22T13:15:10.728Z,99995.13
2022-08-22T13:17:41.523Z,99988.08
2022-08-22T13:20:34.927Z,99989.48
2022-08-22T13:23:11.071Z,99996.41
2022-08-22T13:26:32.964Z,99993.17
2022-08-22T13:29:24.688Z,99994.76
2022-08-22T13:31:35.957Z,100010.94
2022-08-22T13:34:22.884Z,99998.91
2022-08-22T13:36:55.278Z,100003.05
2022-08-22T13:39:35.757Z,100003.87
2022-08-22T13:42:14.196Z,100002.25
2022-08-22T13:44:46.144Z,100001.17
2022-08-22T13:47:18.516Z,100006.81
2022-08-22T13:49:53.572Z,100013.86
2022-08-22T13:52:38.196Z,100016.69
2022-08-22T13:55:42.985Z,100020.91
2022-08-22T13:58:44.802Z,100009.46
2022-08-22T14:01:46.909Z,100017.49
2022-08-22T14:04:33.415Z,100022.38
2022-08-22T14:07:06.482Z,100023.94
2022-08-22T14:09:50.165Z,100013.36
2022-08-22T14:12:22.509Z,100020.16
2022-08-22T14:15:00.745Z,100021.06
2022-08-22T14:17:42.671Z,100019.80
2022-08-22T14:20:32.307Z,100018.72
2022-08-22T14:23:04.721Z,100019.87
2022-08-22T14:25:40.807Z,100021.87
2022-08-22T14:28:27.717Z,100018.62
2022-08-22T14:31:02.931Z,100015.62
2022-08-22T14:33:42.293Z,100016.84
2022-08-22T14:36:19.417Z,100016.09
2022-08-22T14:39:01.451Z,100024.04
2022-08-22T14:41:55.729Z,100025.70
2022-08-22T14:44:09.670Z,100029.61
2022-08-22T14:46:59.401Z,100027.36
2022-08-22T14:49:55.170Z,100027.18
2022-08-22T14:52:42.482Z,100035.17
2022-08-22T14:55:22.599Z,100032.42
2022-08-22T14:57:59.737Z,100025.70
2022-08-22T15:00:34.802Z,100029.67
2022-08-22T15:03:26.586Z,100027.44
2022-08-22T15:06:02.556Z,100031.41
2022-08-22T15:08:49.421Z,100028.59
2022-08-22T15:11:23.066Z,100028.91
2022-08-22T15:14:06.826Z,100029.75
2022-08-22T15:16:52.371Z,100031.73
2022-08-22T15:19:27.276Z,100034.05
2022-08-22T15:22:25.722Z,100026.95
2022-08-22T15:25:22.324Z,100028.83
2022-08-22T15:28:05.523Z,100020.30
2022-08-22T15:31:03.430Z,100022.92
2022-08-22T15:33:38.683Z,100023.31
2022-08-22T15:36:16.312Z,100023.63
2022-08-22T15:38:49.699Z,100029.21
2022-08-22T15:41:31.290Z,100034.45
2022-08-22T15:44:32.207Z,100028.67
2022-08-22T15:47:02.878Z,100032.38
2022-08-22T15:49:37.208Z,100037.56
2022-08-22T15:52:19.997Z,100033.72
2022-08-22T15:55:00.529Z,100032.38
2022-08-22T15:57:34.783Z,100031.99
2022-08-22T16:00:28.088Z,100043.97
2022-08-22T16:03:08.329Z,100047.16
2022-08-22T16:05:54.968Z,100048.44
2022-08-22T16:08:27.208Z,100051.05
2022-08-22T16:11:21.135Z,100050.85
2022-08-22T16:14:10.878Z,100051.74
2022-08-22T16:16:57.345Z,100056.59
2022-08-22T16:19:29.271Z,100050.45
2022-08-22T16:22:03.260Z,100044.05
2022-08-22T16:24:36.837Z,100055.38
2022-08-22T16:27:20.830Z,100060.03
2022-08-22T16:29:52.197Z,100058.79
2022-08-22T16:32:28.282Z,100057.49
2022-08-22T16:34:57.912Z,100053.07
2022-08-22T16:37:44.918Z,100064.37
2022-08-22T16:40:21.538Z,100055.98
2022-08-22T16:43:12.009Z,100061.09
2022-08-22T16:45:45.502Z,100063.92
2022-08-22T16:48:23.666Z,100063.20
2022-08-22T16:51:06.517Z,100070.59
2022-08-22T16:54:03.068Z,100068.66
2022-08-22T16:56:58.367Z,100070.43
2022-08-22T16:59:38.279Z,100081.46
2022-08-22T17:02:28.964Z,100074.53
2022-08-22T17:05:12.078Z,100081.92
2022-08-22T17:08:08.210Z,100074.95
2022-08-22T17:10:49.196Z,100083.12
2022-08-22T17:13:27.483Z,100086.03
2022-08-22T17:16:27.203Z,100085.30
2022-08-22T17:19:39.578Z,100083.68
2022-08-22T17:22:35.800Z,100093.59
2022-08-22T17:25:48.729Z,100090.58
2022-08-22T17:28:53.842Z,100090.93
2022-08-22T17:31:35.116Z,100094.89
2022-08-22T17:34:21.597Z,100091.91
2022-08-22T17:37:10.719Z,100094.19
2022-08-22T17:40:15.679Z,100099.81
2022-08-22T17:43:15.982Z,100106.03
2022-08-22T17:46:17.954Z,100103.88
2022-08-22T17:49:13.819Z,100109.58
2022-08-22T17:51:57.455Z,100112.20
2022-08-22T17:54:52.740Z,100110.89
2022-08-22T17:57:30.002Z,100118.22
2022-08-22T18:00:19.310Z,100118.25
2022-08-22T18:02:58.787Z,100118.86
2022-08-22T18:05:32.573Z,100120.05
2022-08-22T18:09:13.331Z,100115.34
2022-08-22T18:11:14.877Z,100119.06
2022-08-22T18:14:18.697Z,100110.72
2022-08-22T18:16:52.019Z,100108.83
2022-08-22T18:19:55.504Z,100107.27
2022-08-22T18:23:08.381Z,100105.94
2022-08-22T18:25:45.984Z,100105.18
2022-08-22T18:28:27.763Z,100109.45
2022-08-22T18:31:40.252Z,100109.78
2022-08-22T18:34:20.933Z,100106.75
2022-08-22T18:37:16.933Z,100100.88
2022-08-22T18:40:11.625Z,100098.98
2022-08-22T18:42:55.769Z,100107.45
2022-08-22T18:45:50.111Z,100108.05
2022-08-22T18:48:36.718Z,100101.64
2022-08-22T18:51:29.572Z,100112.63
2022-08-22T18:54:12.627Z,100105.37
2022-08-22T18:56:50.138Z,100106.80
2022-08-22T18:59:36.790Z,100098.77
2022-08-22T19:02:29.197Z,100102.16
2022-08-22T19:05:25.165Z,100101.92
2022-08-22T19:08:28.274Z,100105.88
2022-08-22T19:11:27.605Z,100102.27
2022-08-22T19:14:05.852Z,100102.84
2022-08-22T19:16:58.669Z,100096.97
2022-08-22T19:20:10.539Z,100111.25
2022-08-22T19:22:41.109Z,100107.91
2022-08-22T19:25:23.953Z,100105.37
2022-08-22T19:28:16.667Z,100104.84
2022-08-22T19:30:56.001Z,100105.13
2022-08-22T19:33:34.536Z,100095.36
2022-08-22T19:36:12.525Z,100102.36
2022-08-22T19:39:09.055Z,100104.89
2022-08-22T19:41:54.629Z,100106.89
2022-08-22T19:44:39.011Z,100107.75
2022-08-22T19:47:21.239Z,100109.72
2022-08-22T19:50:18.643Z,100106.67
2022-08-22T19:53:38.293Z,100108.36
2022-08-22T19:56:35.567Z,100107.28
2022-08-22T19:59:21.529Z,100103.94
2022-08-22T20:02:38.920Z,100099.23
2022-08-22T20:05:27.674Z,100104.83
2022-08-22T20:08:17.971Z,100102.62
2022-08-22T20:11:15.080Z,100102.39
2022-08-22T20:13:46.810Z,100115.84
2022-08-22T20:16:26.189Z,100103.27
2022-08-22T20:19:09.310Z,100099.95
2022-08-22T20:21:46.950Z,100103.61
2022-08-22T20:24:37.737Z,100100.02
2022-08-22T20:27:14.485Z,100096.73
2022-08-22T20:29:50.981Z,100104.31
2022-08-22T20:32:22.991Z,100103.52
2022-08-22T20:34:56.669Z,100108.27
2022-08-22T20:38:05.277Z,100109.98
2022-08-22T20:40:53.556Z,100119.52
2022-08-22T20:42:54.686Z,100103.34
2022-08-22T20:45:25.582Z,100110.34
2022-08-22T20:47:58.627Z,100103.07
2022-08-22T20:50:29.388Z,100109.77
2022-08-22T20:53:15.078Z,100113.42
2022-08-22T20:55:55.071Z,100113.16
2022-08-22T20:58:28.308Z,100116.78
2022-08-22T21:01:01.278Z,100113.16
2022-08-22T21:03:48.553Z,100117.34
2022-08-22T21:06:31.471Z,100119.59
2022-08-22T21:09:37.933Z,100115.97
2022-08-22T21:12:09.682Z,100114.86
2022-08-22T21:14:41.367Z,100117.41
2022-08-22T21:17:26.841Z,100120.48
2022-08-22T21:19:59.013Z,100119.38
2022-08-22T21:22:32.640Z,100120.50
2022-08-22T21:25:01.783Z,100114.91
2022-08-22T21:27:33.687Z,100122.19
2022-08-22T21:30:07.604Z,100118.28
2022-08-22T21:32:42.368Z,100119.97
2022-08-22T21:35:29.194Z,100121.38
2022-08-22T21:37:59.473Z,100118.31
2022-08-22T21:40:39.337Z,100118.61
2022-08-22T21:43:13.456Z,100115.27
2022-08-22T21:45:44.945Z,100115.00
2022-08-22T21:48:38.070Z,100113.89
2022-08-22T21:51:31.542Z,100111.67
2022-08-22T21:54:29.008Z,100112.27
2022-08-22T21:57:13.658Z,100115.36
2022-08-22T21:59:59.831Z,100115.95
2022-08-22T22:02:42.050Z,100115.97
2022-08-22T22:05:17.135Z,100104.82
2022-08-22T22:07:47.087Z,100108.19
2022-08-22T22:10:19.876Z,100107.08
2022-08-22T22:12:49.438Z,100104.84
2022-08-22T22:15:24.094Z,100095.91
2022-08-22T22:17:54.753Z,100102.05
2022-08-22T22:20:25.983Z,100097.58
2022-08-22T22:22:55.560Z,100094.52
2022-08-22T22:25:40.853Z,100096.16
2022-08-22T22:27:59.009Z,100100.08
2022-08-22T22:33:08.033Z,100101.47
2022-08-22T22:35:39.719Z,100103.17
2022-08-22T22:38:09.005Z,100099.00
2022-08-22T22:40:38.247Z,100104.59
2022-08-22T22:43:08.607Z,100100.41
2022-08-22T22:45:38.644Z,100095.13
2022-08-22T22:48:08.432Z,100104.34
2022-08-22T22:50:39.971Z,100096.80
2022-08-22T22:53:09.561Z,100105.19
2022-08-22T22:55:41.698Z,100109.66
2022-08-22T22:58:10.593Z,100100.73
2022-08-22T23:00:40.895Z,100100.17
2022-08-22T23:03:10.020Z,100101.30
2022-08-22T23:05:40.153Z,100103.53
2022-08-22T23:08:09.980Z,100101.02
2022-08-22T23:10:39.690Z,100096.28
2022-08-22T23:13:10.821Z,100101.02
2022-08-22T23:15:41.714Z,100102.41
2022-08-22T23:18:11.790Z,100102.69
2022-08-22T23:20:42.250Z,100098.23
2022-08-22T23:23:12.777Z,100098.80
2022-08-22T23:25:42.642Z,100096.29
2022-08-22T23:28:12.911Z,100099.65
2022-08-22T23:30:43.682Z,100106.91
2022-08-22T23:33:14.145Z,100117.52
2022-08-22T23:35:44.442Z,100113.06
2022-08-22T23:38:14.540Z,100112.51
2022-08-22T23:40:45.709Z,100110.84
2022-08-22T23:43:16.143Z,100110.84
2022-08-22T23:45:47.012Z,100111.94
2022-08-22T23:48:16.132Z,100109.95
2022-08-22T23:50:46.174Z,100109.96
2022-08-22T23:53:15.020Z,100112.50
2022-08-22T23:55:43.625Z,100106.63
2022-08-22T23:58:12.677Z,100106.63
